Time;durP1;ratioP1;P1;durP2;ratioP2;P2;SDS_P1;SDS_P2;PMS_P1;PMS_P2;Temp;Humidity;BMP_temperature;BMP_pressure;BME280_temperature;BME280_humidity;BME280_pressure;Samples;Min_cycle;Max_cycle;Signal;HPM_P1;HPM_P2
2022/05/22 00:00:34;;;;;;;0.00;0.00;;;;;;;;;;1744274;28;20233;-73
2022/05/22 00:01:27;;;;;;;0.00;0.00;;;;;;;;;;1744300;28;20668;-73
2022/05/22 00:02:19;;;;;;;0.00;0.00;;;;;;;;;;1747840;28;20213;-73
2022/05/22 00:03:11;;;;;;;0.00;0.00;;;;;;;;;;1746553;28;20647;-73
2022/05/22 00:04:03;;;;;;;0.00;0.00;;;;;;;;;;1746197;28;20508;-73
2022/05/22 00:04:55;;;;;;;0.00;0.00;;;;;;;;;;1746515;28;20202;-73
2022/05/22 00:05:46;;;;;;;0.00;0.00;;;;;;;;;;1744966;28;20241;-73
2022/05/22 00:06:38;;;;;;;0.00;0.00;;;;;;;;;;1746236;28;20206;-73
2022/05/22 00:07:30;;;;;;;0.00;0.00;;;;;;;;;;1745591;28;20217;-73
2022/05/22 00:08:22;;;;;;;0.00;0.00;;;;;;;;;;1746377;28;20536;-73
2022/05/22 00:09:13;;;;;;;0.00;0.00;;;;;;;;;;1746335;28;20636;-73
2022/05/22 00:10:06;;;;;;;0.00;0.00;;;;;;;;;;1746050;28;20559;-73
2022/05/22 00:10:57;;;;;;;0.00;0.00;;;;;;;;;;1744813;28;20248;-73
2022/05/22 00:11:49;;;;;;;0.00;0.00;;;;;;;;;;1746637;28;20210;-73
2022/05/22 00:12:41;;;;;;;0.00;0.00;;;;;;;;;;1745998;28;20541;-73
2022/05/22 00:13:33;;;;;;;0.00;0.00;;;;;;;;;;1745812;28;20237;-73
2022/05/22 00:14:25;;;;;;;0.00;0.00;;;;;;;;;;1746124;28;20206;-73
2022/05/22 00:15:18;;;;;;;0.00;0.00;;;;;;;;;;1737474;28;20298;-72
2022/05/22 00:17:20;;;;;;;0.03;0.03;;;;;;;;;;1746215;28;20186;-73
2022/05/22 00:18:12;;;;;;;0.00;0.00;;;;;;;;;;1746554;28;20213;-74
2022/05/22 00:19:03;;;;;;;0.00;0.00;;;;;;;;;;1745972;28;20313;-73
2022/05/22 00:19:56;;;;;;;0.00;0.00;;;;;;;;;;1745304;28;20293;-73
2022/05/22 00:20:47;;;;;;;0.00;0.00;;;;;;;;;;1746219;28;20257;-73
2022/05/22 00:21:39;;;;;;;0.00;0.00;;;;;;;;;;1746466;28;20202;-73
2022/05/22 00:22:30;;;;;;;0.00;0.00;;;;;;;;;;1746197;28;20280;-73
2022/05/22 00:23:23;;;;;;;0.00;0.00;;;;;;;;;;1746479;28;20233;-73
2022/05/22 00:24:15;;;;;;;0.00;0.00;;;;;;;;;;1745075;28;20233;-73
2022/05/22 00:25:10;;;;;;;0.00;0.00;;;;;;;;;;1746374;28;20603;-73
2022/05/22 00:26:01;;;;;;;0.00;0.00;;;;;;;;;;1744206;28;20230;-73
2022/05/22 00:26:54;;;;;;;0.00;0.00;;;;;;;;;;1746453;28;20213;-73
2022/05/22 00:27:46;;;;;;;0.00;0.00;;;;;;;;;;1745992;28;20210;-73
2022/05/22 00:28:37;;;;;;;0.00;0.00;;;;;;;;;;1746428;28;20571;-73
2022/05/22 00:29:28;;;;;;;0.00;0.00;;;;;;;;;;1745876;28;20230;-73
2022/05/22 00:30:21;;;;;;;0.00;0.00;;;;;;;;;;1744652;28;20202;-73
2022/05/22 00:31:16;;;;;;;0.00;0.00;;;;;;;;;;1746223;28;20213;-73
2022/05/22 00:32:09;;;;;;;0.00;0.00;;;;;;;;;;1745828;28;20327;-73
2022/05/22 00:33:02;;;;;;;0.00;0.00;;;;;;;;;;1745257;28;20206;-73
2022/05/22 00:33:54;;;;;;;0.00;0.00;;;;;;;;;;1746530;28;20268;-73
2022/05/22 00:34:45;;;;;;;0.00;0.00;;;;;;;;;;1746234;28;20628;-73
2022/05/22 00:35:38;;;;;;;0.00;0.00;;;;;;;;;;1743501;28;20230;-73
2022/05/22 00:36:29;;;;;;;0.00;0.00;;;;;;;;;;1746445;28;20226;-73
2022/05/22 00:37:22;;;;;;;0.00;0.00;;;;;;;;;;1745707;28;20206;-73
2022/05/22 00:38:14;;;;;;;0.00;0.00;;;;;;;;;;1745237;28;20281;-73
2022/05/22 00:39:06;;;;;;;0.00;0.00;;;;;;;;;;1745622;28;20202;-73
2022/05/22 00:39:58;;;;;;;0.00;0.00;;;;;;;;;;1745975;28;20210;-73
2022/05/22 00:40:52;;;;;;;0.00;0.00;;;;;;;;;;1743715;28;20226;-73
2022/05/22 00:41:47;;;;;;;0.00;0.00;;;;;;;;;;1746061;28;20213;-73
2022/05/22 00:42:42;;;;;;;0.00;0.00;;;;;;;;;;1746195;28;20643;-73
2022/05/22 00:43:35;;;;;;;0.00;0.00;;;;;;;;;;1746197;28;20609;-73
2022/05/22 00:44:27;;;;;;;0.00;0.00;;;;;;;;;;1745335;28;20300;-73
2022/05/22 00:45:19;;;;;;;0.00;0.00;;;;;;;;;;1736668;28;20719;-73
2022/05/22 00:46:12;;;;;;;0.00;0.00;;;;;;;;;;1745115;28;20230;-73
2022/05/22 00:47:05;;;;;;;0.00;0.00;;;;;;;;;;1746233;28;20639;-73
2022/05/22 00:47:57;;;;;;;0.00;0.00;;;;;;;;;;1747526;28;20577;-73
2022/05/22 00:48:49;;;;;;;0.00;0.00;;;;;;;;;;1746295;28;20229;-73
2022/05/22 00:49:43;;;;;;;0.00;0.00;;;;;;;;;;1744706;28;20198;-73
2022/05/22 00:50:34;;;;;;;0.00;0.00;;;;;;;;;;1745140;28;20485;-73
2022/05/22 00:51:29;;;;;;;0.00;0.00;;;;;;;;;;1745967;28;20274;-73
2022/05/22 00:52:23;;;;;;;0.00;0.00;;;;;;;;;;1741976;28;20214;-73
2022/05/22 00:53:16;;;;;;;0.00;0.00;;;;;;;;;;1746427;28;20230;-73
2022/05/22 00:54:08;;;;;;;0.00;0.00;;;;;;;;;;1747444;28;20206;-73
2022/05/22 00:55:03;;;;;;;0.00;0.00;;;;;;;;;;1746391;28;20821;-72
2022/05/22 00:55:54;;;;;;;0.00;0.00;;;;;;;;;;1744413;28;20245;-73
2022/05/22 00:56:48;;;;;;;0.00;0.00;;;;;;;;;;1746207;28;20632;-73
2022/05/22 00:57:41;;;;;;;0.00;0.00;;;;;;;;;;1744762;28;20636;-73
2022/05/22 00:58:33;;;;;;;0.00;0.00;;;;;;;;;;1746071;28;20293;-73
2022/05/22 00:59:26;;;;;;;0.05;0.05;;;;;;;;;;1745983;28;20296;-73
2022/05/22 01:00:20;;;;;;;0.00;0.00;;;;;;;;;;1744169;28;20305;-73
2022/05/22 01:01:11;;;;;;;0.00;0.00;;;;;;;;;;1744588;28;20655;-73
2022/05/22 01:02:04;;;;;;;0.00;0.00;;;;;;;;;;1746199;28;20260;-73
2022/05/22 01:04:10;;;;;;;0.00;0.00;;;;;;;;;;1746549;28;20240;-73
2022/05/22 01:05:01;;;;;;;0.00;0.00;;;;;;;;;;1746100;28;20556;-73
2022/05/22 01:05:54;;;;;;;0.00;0.00;;;;;;;;;;1745240;28;20552;-73
2022/05/22 01:06:46;;;;;;;0.00;0.00;;;;;;;;;;1745966;28;20475;-73
2022/05/22 01:07:39;;;;;;;0.00;0.00;;;;;;;;;;1745513;28;20198;-73
2022/05/22 01:08:31;;;;;;;0.00;0.00;;;;;;;;;;1746104;28;20210;-73
2022/05/22 01:09:23;;;;;;;0.00;0.00;;;;;;;;;;1745527;28;20210;-74
2022/05/22 01:10:15;;;;;;;0.00;0.00;;;;;;;;;;1744448;28;20667;-73
2022/05/22 01:11:09;;;;;;;0.00;0.00;;;;;;;;;;1745316;28;20229;-73
2022/05/22 01:12:03;;;;;;;0.00;0.00;;;;;;;;;;1739617;28;20210;-73
2022/05/22 01:12:55;;;;;;;0.00;0.00;;;;;;;;;;1745126;28;20264;-73
2022/05/22 01:13:48;;;;;;;0.00;0.00;;;;;;;;;;1743008;28;20206;-73
2022/05/22 01:14:41;;;;;;;0.00;0.00;;;;;;;;;;1745696;28;20202;-73
2022/05/22 01:15:32;;;;;;;0.00;0.00;;;;;;;;;;1744707;28;20605;-73
2022/05/22 01:16:25;;;;;;;0.00;0.00;;;;;;;;;;1745144;28;20206;-73
2022/05/22 01:17:16;;;;;;;0.00;0.00;;;;;;;;;;1745482;28;20202;-73
2022/05/22 01:18:10;;;;;;;0.00;0.00;;;;;;;;;;1746258;28;20199;-73
2022/05/22 01:19:01;;;;;;;0.00;0.00;;;;;;;;;;1745611;28;20209;-73
2022/05/22 01:19:57;;;;;;;0.00;0.00;;;;;;;;;;1745254;28;20516;-73
2022/05/22 01:20:49;;;;;;;0.00;0.00;;;;;;;;;;1744099;28;20214;-73
2022/05/22 01:21:42;;;;;;;0.00;0.00;;;;;;;;;;1745977;28;20792;-73
2022/05/22 01:22:34;;;;;;;0.00;0.00;;;;;;;;;;1744920;28;20236;-73
2022/05/22 01:23:26;;;;;;;0.00;0.00;;;;;;;;;;1749183;28;20205;-73
2022/05/22 01:24:18;;;;;;;0.00;0.00;;;;;;;;;;1745601;28;20407;-73
2022/05/22 01:25:10;;;;;;;0.00;0.00;;;;;;;;;;1746071;28;20202;-73
2022/05/22 01:26:02;;;;;;;0.00;0.00;;;;;;;;;;1744413;28;20438;-73
2022/05/22 01:26:55;;;;;;;0.00;0.00;;;;;;;;;;1745388;28;20206;-73
2022/05/22 01:27:46;;;;;;;0.00;0.00;;;;;;;;;;1745321;28;20218;-73
2022/05/22 01:28:37;;;;;;;0.00;0.00;;;;;;;;;;1745499;28;20202;-72
2022/05/22 01:29:29;;;;;;;0.00;0.00;;;;;;;;;;1745016;28;20199;-73
2022/05/22 01:30:22;;;;;;;0.00;0.00;;;;;;;;;;1737201;28;20218;-73
2022/05/22 01:31:14;;;;;;;0.00;0.00;;;;;;;;;;1746785;28;20508;-73
2022/05/22 01:32:06;;;;;;;0.00;0.00;;;;;;;;;;1746412;28;20885;-73
2022/05/22 01:32:58;;;;;;;0.00;0.00;;;;;;;;;;1745165;28;20201;-73
2022/05/22 01:33:49;;;;;;;0.00;0.00;;;;;;;;;;1745936;28;20237;-73
2022/05/22 01:34:41;;;;;;;0.00;0.00;;;;;;;;;;1745328;28;20785;-73
2022/05/22 01:35:35;;;;;;;0.00;0.00;;;;;;;;;;1743805;28;20234;-73
2022/05/22 01:36:27;;;;;;;0.00;0.00;;;;;;;;;;1745677;28;20280;-73
2022/05/22 01:37:18;;;;;;;0.00;0.00;;;;;;;;;;1745593;28;20217;-73
2022/05/22 01:38:12;;;;;;;0.00;0.00;;;;;;;;;;1745251;28;20505;-73
2022/05/22 01:39:04;;;;;;;0.00;0.00;;;;;;;;;;1745578;28;20198;-73
2022/05/22 01:39:55;;;;;;;0.00;0.00;;;;;;;;;;1744335;28;20213;-73
2022/05/22 01:40:47;;;;;;;0.00;0.00;;;;;;;;;;1743922;28;20758;-73
2022/05/22 01:41:39;;;;;;;0.00;0.00;;;;;;;;;;1745066;28;20210;-73
2022/05/22 01:42:31;;;;;;;0.00;0.00;;;;;;;;;;1745568;28;20224;-73
2022/05/22 01:43:22;;;;;;;0.00;0.00;;;;;;;;;;1745952;28;20206;-73
2022/05/22 01:44:15;;;;;;;0.00;0.00;;;;;;;;;;1745607;28;20214;-73
2022/05/22 01:45:07;;;;;;;0.05;0.05;;;;;;;;;;1742897;28;20213;-73
2022/05/22 01:45:59;;;;;;;0.00;0.00;;;;;;;;;;1741180;28;20241;-73
2022/05/22 01:46:50;;;;;;;0.00;0.00;;;;;;;;;;1745828;28;20202;-73
2022/05/22 01:47:42;;;;;;;0.00;0.00;;;;;;;;;;1746360;28;20226;-73
2022/05/22 01:48:33;;;;;;;0.00;0.00;;;;;;;;;;1745527;28;20198;-73
2022/05/22 01:49:25;;;;;;;0.00;0.00;;;;;;;;;;1745486;28;20214;-73
2022/05/22 01:50:17;;;;;;;0.00;0.00;;;;;;;;;;1743548;28;20206;-74
2022/05/22 01:51:10;;;;;;;0.00;0.00;;;;;;;;;;1745983;28;20217;-74
2022/05/22 01:52:02;;;;;;;0.00;0.00;;;;;;;;;;1739146;28;20650;-73
2022/05/22 01:52:55;;;;;;;0.00;0.00;;;;;;;;;;1744522;28;20632;-73
2022/05/22 01:53:47;;;;;;;0.00;0.00;;;;;;;;;;1745516;28;20206;-73
2022/05/22 01:54:40;;;;;;;0.00;0.00;;;;;;;;;;1746565;28;20206;-73
2022/05/22 01:55:31;;;;;;;0.00;0.00;;;;;;;;;;1744437;28;20276;-73
2022/05/22 01:56:23;;;;;;;0.00;0.00;;;;;;;;;;1745504;28;20201;-73
2022/05/22 01:57:15;;;;;;;0.00;0.00;;;;;;;;;;1745621;28;20217;-73
2022/05/22 01:58:46;;;;;;;;;;;;;;;;;;;;;
2022/05/22 01:59:59;;;;;;;0.10;0.10;;;;;;;;;;1741255;28;20241;-73
2022/05/22 02:00:51;;;;;;;0.00;0.00;;;;;;;;;;1737600;28;20237;-73
2022/05/22 02:01:43;;;;;;;0.00;0.00;;;;;;;;;;1745841;28;20202;-73
2022/05/22 02:02:34;;;;;;;0.00;0.00;;;;;;;;;;1745319;28;20225;-73
2022/05/22 02:03:26;;;;;;;0.00;0.00;;;;;;;;;;1744174;28;20225;-73
2022/05/22 02:04:18;;;;;;;0.00;0.00;;;;;;;;;;1745596;28;20202;-73
2022/05/22 02:05:10;;;;;;;0.00;0.00;;;;;;;;;;1745642;28;20209;-73
2022/05/22 02:06:01;;;;;;;0.00;0.00;;;;;;;;;;1745119;28;20238;-73
2022/05/22 02:08:23;;;;;;;0.00;0.00;;;;;;;;;;1745646;28;20236;-72
2022/05/22 02:09:16;;;;;;;0.00;0.00;;;;;;;;;;1745485;28;20217;-72
2022/05/22 02:10:08;;;;;;;0.00;0.00;;;;;;;;;;1744164;28;20533;-72
2022/05/22 02:11:01;;;;;;;0.00;0.00;;;;;;;;;;1743660;28;20238;-72
2022/05/22 02:11:52;;;;;;;0.00;0.00;;;;;;;;;;1745953;28;20213;-73
2022/05/22 02:12:44;;;;;;;0.00;0.00;;;;;;;;;;1744998;28;20635;-73
2022/05/22 02:13:37;;;;;;;0.00;0.00;;;;;;;;;;1745021;28;20195;-73
2022/05/22 02:14:28;;;;;;;0.00;0.00;;;;;;;;;;1745567;28;20213;-73
2022/05/22 02:15:21;;;;;;;0.00;0.00;;;;;;;;;;1737067;28;20211;-73
2022/05/22 02:16:12;;;;;;;0.00;0.00;;;;;;;;;;1744884;28;20202;-73
2022/05/22 02:17:05;;;;;;;0.00;0.00;;;;;;;;;;1745510;28;20199;-73
2022/05/22 02:17:56;;;;;;;0.00;0.00;;;;;;;;;;1745281;28;20256;-73
2022/05/22 02:18:48;;;;;;;0.00;0.00;;;;;;;;;;1745538;28;20264;-73
2022/05/22 02:19:40;;;;;;;0.00;0.00;;;;;;;;;;1745833;28;20206;-73
2022/05/22 02:20:32;;;;;;;0.00;0.00;;;;;;;;;;1744133;28;20538;-73
2022/05/22 02:21:24;;;;;;;0.00;0.00;;;;;;;;;;1745479;28;20209;-73
2022/05/22 02:22:15;;;;;;;0.00;0.00;;;;;;;;;;1745866;28;20206;-73
2022/05/22 02:23:07;;;;;;;0.00;0.00;;;;;;;;;;1745638;28;20281;-73
2022/05/22 02:23:59;;;;;;;0.00;0.00;;;;;;;;;;1746965;28;20325;-73
2022/05/22 02:24:54;;;;;;;0.00;0.00;;;;;;;;;;1745553;28;20513;-73
2022/05/22 02:25:47;;;;;;;0.00;0.00;;;;;;;;;;1743077;28;20249;-73
2022/05/22 02:26:39;;;;;;;0.00;0.00;;;;;;;;;;1745572;28;20293;-73
2022/05/22 02:27:32;;;;;;;0.00;0.00;;;;;;;;;;1744934;28;20430;-73
2022/05/22 02:28:25;;;;;;;0.00;0.00;;;;;;;;;;1745868;28;20202;-73
2022/05/22 02:29:16;;;;;;;0.00;0.00;;;;;;;;;;1745126;28;20350;-73
2022/05/22 02:30:09;;;;;;;0.00;0.00;;;;;;;;;;1745177;28;20195;-73
2022/05/22 02:31:02;;;;;;;0.00;0.00;;;;;;;;;;1743739;28;20242;-73
2022/05/22 02:31:54;;;;;;;0.00;0.00;;;;;;;;;;1744957;28;20230;-73
2022/05/22 02:32:45;;;;;;;0.08;0.08;;;;;;;;;;1744422;28;20194;-73
2022/05/22 02:33:37;;;;;;;0.00;0.00;;;;;;;;;;1745841;28;20292;-73
2022/05/22 02:34:28;;;;;;;0.00;0.00;;;;;;;;;;1745160;28;20241;-73
2022/05/22 02:35:20;;;;;;;0.00;0.00;;;;;;;;;;1737188;28;20203;-74
2022/05/22 02:36:14;;;;;;;0.00;0.00;;;;;;;;;;1744546;28;20207;-74
2022/05/22 02:37:06;;;;;;;0.00;0.00;;;;;;;;;;1745641;28;20548;-73
2022/05/22 02:37:58;;;;;;;0.00;0.00;;;;;;;;;;1744198;28;20221;-73
2022/05/22 02:38:50;;;;;;;0.00;0.00;;;;;;;;;;1745306;28;20199;-73
2022/05/22 02:39:41;;;;;;;0.00;0.00;;;;;;;;;;1744852;28;20210;-73
2022/05/22 02:40:35;;;;;;;0.00;0.00;;;;;;;;;;1743768;28;20623;-73
2022/05/22 02:41:27;;;;;;;0.00;0.00;;;;;;;;;;1745279;28;20313;-73
2022/05/22 02:42:18;;;;;;;0.03;0.03;;;;;;;;;;1745441;28;20332;-73
2022/05/22 02:43:10;;;;;;;0.00;0.00;;;;;;;;;;1745279;28;20252;-73
2022/05/22 02:44:02;;;;;;;0.00;0.00;;;;;;;;;;1745045;28;20198;-73
2022/05/22 02:44:54;;;;;;;0.00;0.00;;;;;;;;;;1744218;28;20259;-73
2022/05/22 02:45:45;;;;;;;0.00;0.00;;;;;;;;;;1741944;28;20573;-73
2022/05/22 02:46:37;;;;;;;0.00;0.00;;;;;;;;;;1744217;28;20871;-73
2022/05/22 02:47:28;;;;;;;0.00;0.00;;;;;;;;;;1745146;28;20275;-73
2022/05/22 02:48:21;;;;;;;0.00;0.00;;;;;;;;;;1745713;28;20616;-73
2022/05/22 02:49:12;;;;;;;0.00;0.00;;;;;;;;;;1743260;28;20218;-73
2022/05/22 02:50:31;;;;;;;0.00;0.00;;;;;;;;;;1745091;28;20310;-73
2022/05/22 02:51:23;;;;;;;0.00;0.00;;;;;;;;;;1707498;28;20224;-74
2022/05/22 02:57:22;;;;;;;0.00;0.00;;;;;;;;;;1673117;28;20610;-74
2022/05/22 02:58:19;;;;;;;0.00;0.00;;;;;;;;;;1690319;29;20215;-73
2022/05/22 02:59:14;;;;;;;0.00;0.00;;;;;;;;;;1706594;28;20210;-73
2022/05/22 03:00:07;;;;;;;0.00;0.00;;;;;;;;;;1709858;28;20206;-73
2022/05/22 03:01:35;;;;;;;0.00;0.00;;;;;;;;;;1707133;28;20597;-74
2022/05/22 03:02:36;;;;;;;0.00;0.00;;;;;;;;;;1703997;28;20581;-73
2022/05/22 03:03:29;;;;;;;0.00;0.00;;;;;;;;;;1709849;28;20206;-73
2022/05/22 03:04:20;;;;;;;0.00;0.00;;;;;;;;;;1710166;28;20747;-73
2022/05/22 03:05:13;;;;;;;0.00;0.00;;;;;;;;;;1710527;28;20299;-73
2022/05/22 03:07:15;;;;;;;0.00;0.00;;;;;;;;;;1704604;28;20271;-73
2022/05/22 03:08:07;;;;;;;0.00;0.00;;;;;;;;;;1710433;28;20248;-74
2022/05/22 03:08:58;;;;;;;0.00;0.00;;;;;;;;;;1710501;28;20205;-73
2022/05/22 03:09:51;;;;;;;0.00;0.00;;;;;;;;;;1708947;28;20283;-73
2022/05/22 03:10:44;;;;;;;0.00;0.00;;;;;;;;;;1709389;28;20229;-73
2022/05/22 03:11:37;;;;;;;0.00;0.00;;;;;;;;;;1709339;28;20249;-73
2022/05/22 03:12:29;;;;;;;0.00;0.00;;;;;;;;;;1708876;28;20209;-73
2022/05/22 03:13:22;;;;;;;0.00;0.00;;;;;;;;;;1710562;28;20206;-73
2022/05/22 03:14:14;;;;;;;0.00;0.00;;;;;;;;;;1710382;28;20217;-73
2022/05/22 03:15:08;;;;;;;0.00;0.00;;;;;;;;;;1710718;28;20622;-73
2022/05/22 03:15:59;;;;;;;0.00;0.00;;;;;;;;;;1706242;28;20238;-73
2022/05/22 03:16:51;;;;;;;0.00;0.00;;;;;;;;;;1710545;28;20620;-74
2022/05/22 03:17:43;;;;;;;0.00;0.00;;;;;;;;;;1709926;28;20224;-74
2022/05/22 03:18:35;;;;;;;0.00;0.00;;;;;;;;;;1710805;28;20642;-73
2022/05/22 03:19:26;;;;;;;0.00;0.00;;;;;;;;;;1709891;28;20225;-73
2022/05/22 03:20:19;;;;;;;0.00;0.00;;;;;;;;;;1708466;28;20744;-73
2022/05/22 03:21:10;;;;;;;0.00;0.00;;;;;;;;;;1710559;28;20197;-73
2022/05/22 03:22:02;;;;;;;0.00;0.00;;;;;;;;;;1710199;28;20202;-73
2022/05/22 03:22:53;;;;;;;0.00;0.00;;;;;;;;;;1708142;28;20568;-73
2022/05/22 03:23:45;;;;;;;0.00;0.00;;;;;;;;;;1710638;28;20747;-73
2022/05/22 03:24:37;;;;;;;0.00;0.00;;;;;;;;;;1709592;28;20224;-73
2022/05/22 03:25:32;;;;;;;0.00;0.00;;;;;;;;;;1709434;28;20206;-73
2022/05/22 03:26:23;;;;;;;0.00;0.00;;;;;;;;;;1709836;28;20791;-73
2022/05/22 03:27:16;;;;;;;0.00;0.00;;;;;;;;;;1710174;28;20688;-73
2022/05/22 03:28:07;;;;;;;0.00;0.00;;;;;;;;;;1709751;28;20217;-73
2022/05/22 03:29:01;;;;;;;0.00;0.00;;;;;;;;;;1711033;28;20814;-73
2022/05/22 03:29:53;;;;;;;0.00;0.00;;;;;;;;;;1737461;28;20207;-73
2022/05/22 03:30:45;;;;;;;0.00;0.00;;;;;;;;;;1743915;28;20669;-73
2022/05/22 03:31:37;;;;;;;0.00;0.00;;;;;;;;;;1745648;28;20639;-73
2022/05/22 03:32:32;;;;;;;0.00;0.00;;;;;;;;;;1745133;28;20226;-73
2022/05/22 03:33:23;;;;;;;0.00;0.00;;;;;;;;;;1745010;28;20222;-74
2022/05/22 03:34:15;;;;;;;0.00;0.00;;;;;;;;;;1744857;28;20229;-73
2022/05/22 03:35:07;;;;;;;0.00;0.00;;;;;;;;;;1744783;28;20190;-73
2022/05/22 03:35:59;;;;;;;0.00;0.00;;;;;;;;;;1744039;28;20246;-73
2022/05/22 03:36:52;;;;;;;0.00;0.00;;;;;;;;;;1745367;28;20344;-73
2022/05/22 03:37:43;;;;;;;0.00;0.00;;;;;;;;;;1744932;28;20202;-73
2022/05/22 03:38:35;;;;;;;0.00;0.00;;;;;;;;;;1745307;28;20203;-73
2022/05/22 03:39:26;;;;;;;0.00;0.00;;;;;;;;;;1745020;28;20845;-73
2022/05/22 03:40:19;;;;;;;0.00;0.00;;;;;;;;;;1742801;28;20599;-73
2022/05/22 03:41:10;;;;;;;0.00;0.00;;;;;;;;;;1743758;28;20660;-73
2022/05/22 03:42:02;;;;;;;0.00;0.00;;;;;;;;;;1745645;28;20557;-73
2022/05/22 03:42:53;;;;;;;0.00;0.00;;;;;;;;;;1744875;28;20534;-73
2022/05/22 03:43:46;;;;;;;0.00;0.00;;;;;;;;;;1745536;28;20199;-73
2022/05/22 03:44:39;;;;;;;0.00;0.00;;;;;;;;;;1744873;28;20664;-73
2022/05/22 03:45:31;;;;;;;0.00;0.00;;;;;;;;;;1744155;28;20248;-73
2022/05/22 03:46:22;;;;;;;0.00;0.00;;;;;;;;;;1745162;28;20536;-73
2022/05/22 03:47:14;;;;;;;0.00;0.00;;;;;;;;;;1744891;28;20848;-73
2022/05/22 03:48:06;;;;;;;0.00;0.00;;;;;;;;;;1745823;28;20206;-73
2022/05/22 03:48:57;;;;;;;0.00;0.00;;;;;;;;;;1745461;28;20289;-73
2022/05/22 03:49:49;;;;;;;0.00;0.00;;;;;;;;;;1744985;28;20218;-73
2022/05/22 03:50:41;;;;;;;0.00;0.00;;;;;;;;;;1745206;28;20241;-73
2022/05/22 03:51:34;;;;;;;0.00;0.00;;;;;;;;;;1744636;28;20198;-73
2022/05/22 03:52:25;;;;;;;0.00;0.00;;;;;;;;;;1746467;28;20734;-73
2022/05/22 03:53:17;;;;;;;0.00;0.00;;;;;;;;;;1746240;28;20236;-73
2022/05/22 03:54:09;;;;;;;0.00;0.00;;;;;;;;;;1747239;28;20474;-73
2022/05/22 03:55:01;;;;;;;0.00;0.00;;;;;;;;;;1748289;28;20201;-73
2022/05/22 03:55:52;;;;;;;0.00;0.00;;;;;;;;;;1744931;28;20727;-73
2022/05/22 03:56:44;;;;;;;0.00;0.00;;;;;;;;;;1746677;28;20200;-73
2022/05/22 03:57:35;;;;;;;0.00;0.00;;;;;;;;;;1745760;28;20214;-73
2022/05/22 03:58:28;;;;;;;0.00;0.00;;;;;;;;;;1746786;28;20210;-73
2022/05/22 03:59:19;;;;;;;0.00;0.00;;;;;;;;;;1746174;28;20256;-73
2022/05/22 04:00:14;;;;;;;0.00;0.00;;;;;;;;;;1745378;28;20201;-73
2022/05/22 04:01:06;;;;;;;0.00;0.00;;;;;;;;;;1744837;28;20230;-73
2022/05/22 04:01:59;;;;;;;0.00;0.00;;;;;;;;;;1746612;28;20212;-73
2022/05/22 04:02:51;;;;;;;0.00;0.00;;;;;;;;;;1746205;28;20259;-73
2022/05/22 04:03:43;;;;;;;0.00;0.00;;;;;;;;;;1742928;28;20209;-72
2022/05/22 04:04:37;;;;;;;0.00;0.00;;;;;;;;;;1746211;28;20221;-73
2022/05/22 04:05:32;;;;;;;0.00;0.00;;;;;;;;;;1745615;28;20521;-73
2022/05/22 04:06:24;;;;;;;0.00;0.00;;;;;;;;;;1745851;28;20272;-73
2022/05/22 04:07:16;;;;;;;0.00;0.00;;;;;;;;;;1746200;28;20606;-73
2022/05/22 04:08:07;;;;;;;0.00;0.00;;;;;;;;;;1746307;28;20210;-73
2022/05/22 04:08:59;;;;;;;0.00;0.00;;;;;;;;;;1746613;28;20432;-73
2022/05/22 04:09:51;;;;;;;0.00;0.00;;;;;;;;;;1745695;28;20206;-73
2022/05/22 04:10:43;;;;;;;0.00;0.00;;;;;;;;;;1745155;28;20249;-73
2022/05/22 04:11:35;;;;;;;0.00;0.00;;;;;;;;;;1746443;28;20217;-72
2022/05/22 04:12:27;;;;;;;0.00;0.00;;;;;;;;;;1745630;28;20202;-72
2022/05/22 04:13:18;;;;;;;0.00;0.00;;;;;;;;;;1746251;28;20207;-73
2022/05/22 04:14:11;;;;;;;0.00;0.00;;;;;;;;;;1746193;28;20206;-73
2022/05/22 04:15:02;;;;;;;0.00;0.00;;;;;;;;;;1746667;28;20202;-72
2022/05/22 04:15:58;;;;;;;0.00;0.00;;;;;;;;;;1744486;28;20241;-72
2022/05/22 04:16:49;;;;;;;0.00;0.00;;;;;;;;;;1746597;28;20190;-73
2022/05/22 04:17:41;;;;;;;0.00;0.00;;;;;;;;;;1745953;28;20198;-73
2022/05/22 04:18:33;;;;;;;0.00;0.00;;;;;;;;;;1746150;28;20282;-73
2022/05/22 04:19:25;;;;;;;0.00;0.00;;;;;;;;;;1745320;28;20646;-73
2022/05/22 04:20:18;;;;;;;0.00;0.00;;;;;;;;;;1744296;28;20636;-73
2022/05/22 04:21:11;;;;;;;0.00;0.00;;;;;;;;;;1746313;28;20531;-73
2022/05/22 04:22:02;;;;;;;0.00;0.00;;;;;;;;;;1746609;28;20203;-73
2022/05/22 04:25:15;;;;;;;0.00;0.00;;;;;;;;;;1744462;28;20268;-73
2022/05/22 04:26:07;;;;;;;0.00;0.00;;;;;;;;;;1745048;28;20237;-73
2022/05/22 04:27:03;;;;;;;0.00;0.00;;;;;;;;;;1746322;28;20229;-73
2022/05/22 04:27:55;;;;;;;0.00;0.00;;;;;;;;;;1745773;28;20201;-73
2022/05/22 04:28:47;;;;;;;0.00;0.00;;;;;;;;;;1746338;28;20213;-73
2022/05/22 04:29:38;;;;;;;0.00;0.00;;;;;;;;;;1745760;28;20316;-72
2022/05/22 04:30:30;;;;;;;0.00;0.00;;;;;;;;;;1744687;28;20285;-72
2022/05/22 04:31:23;;;;;;;0.00;0.00;;;;;;;;;;1745555;28;20215;-73
2022/05/22 04:32:15;;;;;;;0.00;0.00;;;;;;;;;;1739656;28;20436;-73
2022/05/22 04:33:06;;;;;;;0.00;0.00;;;;;;;;;;1744937;28;20568;-73
2022/05/22 04:33:58;;;;;;;0.00;0.00;;;;;;;;;;1746279;28;20226;-73
2022/05/22 04:34:49;;;;;;;0.00;0.00;;;;;;;;;;1745948;28;20206;-73
2022/05/22 04:35:43;;;;;;;0.00;0.00;;;;;;;;;;1745132;28;20283;-73
2022/05/22 04:36:34;;;;;;;0.00;0.00;;;;;;;;;;1746243;28;20202;-73
2022/05/22 04:37:26;;;;;;;0.00;0.00;;;;;;;;;;1746780;28;20268;-73
2022/05/22 04:38:17;;;;;;;0.00;0.00;;;;;;;;;;1744647;28;20217;-73
2022/05/22 04:39:11;;;;;;;0.00;0.00;;;;;;;;;;1746002;28;20202;-73
2022/05/22 04:40:02;;;;;;;0.00;0.00;;;;;;;;;;1746063;28;20595;-73
2022/05/22 04:40:55;;;;;;;0.00;0.00;;;;;;;;;;1744144;28;20611;-72
2022/05/22 04:41:46;;;;;;;0.00;0.00;;;;;;;;;;1744675;28;20210;-74
2022/05/22 04:42:39;;;;;;;0.00;0.00;;;;;;;;;;1746029;28;20202;-73
2022/05/22 04:43:32;;;;;;;0.00;0.00;;;;;;;;;;1746289;28;20201;-73
2022/05/22 04:44:24;;;;;;;0.00;0.00;;;;;;;;;;1745176;28;20267;-73
2022/05/22 04:45:15;;;;;;;0.08;0.08;;;;;;;;;;1744356;28;20640;-73
2022/05/22 04:46:08;;;;;;;0.00;0.00;;;;;;;;;;1746126;28;20263;-73
2022/05/22 04:47:01;;;;;;;0.00;0.00;;;;;;;;;;1742591;28;20284;-73
2022/05/22 04:47:53;;;;;;;0.00;0.00;;;;;;;;;;1746477;28;20255;-72
2022/05/22 04:48:44;;;;;;;0.00;0.00;;;;;;;;;;1746674;28;20199;-72
2022/05/22 04:49:36;;;;;;;0.00;0.00;;;;;;;;;;1745706;28;20471;-72
2022/05/22 04:50:28;;;;;;;0.00;0.00;;;;;;;;;;1743953;28;20586;-72
2022/05/22 04:51:21;;;;;;;0.00;0.00;;;;;;;;;;1743772;28;20199;-72
2022/05/22 04:52:12;;;;;;;0.00;0.00;;;;;;;;;;1746536;28;20209;-72
2022/05/22 04:53:04;;;;;;;0.00;0.00;;;;;;;;;;1745808;28;20686;-72
2022/05/22 04:53:55;;;;;;;0.00;0.00;;;;;;;;;;1747090;28;20199;-72
2022/05/22 04:54:47;;;;;;;0.00;0.00;;;;;;;;;;1746861;28;20202;-73
2022/05/22 04:55:39;;;;;;;0.00;0.00;;;;;;;;;;1745080;28;20237;-73
2022/05/22 04:56:31;;;;;;;0.00;0.00;;;;;;;;;;1745124;28;20210;-73
2022/05/22 04:57:22;;;;;;;0.00;0.00;;;;;;;;;;1745533;28;20652;-73
2022/05/22 04:58:16;;;;;;;0.00;0.00;;;;;;;;;;1746007;28;20443;-73
2022/05/22 04:59:07;;;;;;;0.00;0.00;;;;;;;;;;1746038;28;20217;-73
2022/05/22 04:59:59;;;;;;;0.00;0.00;;;;;;;;;;1745471;28;20194;-73
2022/05/22 05:00:51;;;;;;;0.00;0.00;;;;;;;;;;1744575;28;20245;-73
2022/05/22 05:01:43;;;;;;;0.00;0.00;;;;;;;;;;1745835;28;20496;-73
2022/05/22 05:02:35;;;;;;;0.00;0.00;;;;;;;;;;1745584;28;20209;-73
2022/05/22 05:03:28;;;;;;;0.00;0.00;;;;;;;;;;1742481;28;20715;-73
2022/05/22 05:04:19;;;;;;;0.00;0.00;;;;;;;;;;1744455;28;20220;-74
2022/05/22 05:05:11;;;;;;;0.00;0.00;;;;;;;;;;1746422;28;20605;-73
2022/05/22 05:06:03;;;;;;;0.00;0.00;;;;;;;;;;1744391;28;20245;-73
2022/05/22 05:06:56;;;;;;;0.00;0.00;;;;;;;;;;1746168;28;20198;-73
2022/05/22 05:07:48;;;;;;;0.00;0.00;;;;;;;;;;1745826;28;20632;-74
2022/05/22 05:08:40;;;;;;;0.00;0.00;;;;;;;;;;1746042;28;20234;-73
2022/05/22 05:09:31;;;;;;;0.00;0.00;;;;;;;;;;1744854;28;20206;-73
2022/05/22 05:10:24;;;;;;;0.00;0.00;;;;;;;;;;1743743;28;20198;-73
2022/05/22 05:11:15;;;;;;;0.00;0.00;;;;;;;;;;1745955;28;20727;-73
2022/05/22 05:12:07;;;;;;;0.00;0.00;;;;;;;;;;1746421;28;20208;-73
2022/05/22 05:13:00;;;;;;;0.00;0.00;;;;;;;;;;1745776;28;20208;-73
2022/05/22 05:13:52;;;;;;;0.00;0.00;;;;;;;;;;1746433;28;20213;-73
2022/05/22 05:14:43;;;;;;;0.00;0.00;;;;;;;;;;1745730;28;20206;-73
2022/05/22 05:15:36;;;;;;;0.00;0.00;;;;;;;;;;1744287;28;20679;-73
2022/05/22 05:16:27;;;;;;;0.00;0.00;;;;;;;;;;1745556;28;20202;-73
2022/05/22 05:17:20;;;;;;;0.00;0.00;;;;;;;;;;1745847;28;20491;-73
2022/05/22 05:18:13;;;;;;;0.00;0.00;;;;;;;;;;1746026;28;20324;-73
2022/05/22 05:19:05;;;;;;;0.00;0.00;;;;;;;;;;1745787;28;20214;-73
2022/05/22 05:19:57;;;;;;;0.00;0.00;;;;;;;;;;1748015;28;20202;-73
2022/05/22 05:20:49;;;;;;;0.00;0.00;;;;;;;;;;1750618;28;20229;-73
2022/05/22 05:21:40;;;;;;;0.00;0.00;;;;;;;;;;1745867;28;20210;-73
2022/05/22 05:22:32;;;;;;;0.00;0.00;;;;;;;;;;1744969;28;20383;-73
2022/05/22 05:23:24;;;;;;;0.00;0.00;;;;;;;;;;1746331;28;20211;-73
2022/05/22 05:24:16;;;;;;;0.00;0.00;;;;;;;;;;1747554;28;20605;-72
2022/05/22 05:25:07;;;;;;;0.00;0.00;;;;;;;;;;1744715;28;20209;-73
2022/05/22 05:25:59;;;;;;;0.00;0.00;;;;;;;;;;1745934;28;20225;-73
2022/05/22 05:26:54;;;;;;;0.00;0.00;;;;;;;;;;1745848;28;20528;-73
2022/05/22 05:27:46;;;;;;;0.05;0.05;;;;;;;;;;1745321;28;20226;-73